sensor_id;sensor_type;location;lat;lon;timestamp;pressure;altitude;pressure_sealevel;temperature;humidity
71764;BME280;59602;52.142;5.408;2023-04-03T00:01:20;103222.50;;;5.01;67.49
71764;BME280;59602;52.142;5.408;2023-04-03T00:03:47;103228.44;;;4.97;67.54
71764;BME280;59602;52.142;5.408;2023-04-03T00:06:14;103226.84;;;4.96;67.42
71764;BME280;59602;52.142;5.408;2023-04-03T00:08:42;103227.09;;;4.95;66.87
71764;BME280;59602;52.142;5.408;2023-04-03T00:11:09;103230.09;;;4.93;66.95
71764;BME280;59602;52.142;5.408;2023-04-03T00:13:38;103229.28;;;4.93;67.15
71764;BME280;59602;52.142;5.408;2023-04-03T00:16:06;103232.81;;;4.88;67.65
71764;BME280;59602;52.142;5.408;2023-04-03T00:18:35;103224.19;;;4.86;67.74
71764;BME280;59602;52.142;5.408;2023-04-03T00:21:05;103233.13;;;4.87;67.49
71764;BME280;59602;52.142;5.408;2023-04-03T00:23:35;103230.41;;;4.87;67.30
71764;BME280;59602;52.142;5.408;2023-04-03T00:26:02;103225.31;;;4.85;67.22
71764;BME280;59602;52.142;5.408;2023-04-03T00:28:28;103228.28;;;4.84;67.23
71764;BME280;59602;52.142;5.408;2023-04-03T00:30:56;103233.13;;;4.82;67.28
71764;BME280;59602;52.142;5.408;2023-04-03T00:33:23;103236.94;;;4.81;67.30
71764;BME280;59602;52.142;5.408;2023-04-03T00:35:51;103235.59;;;4.78;67.16
71764;BME280;59602;52.142;5.408;2023-04-03T00:38:18;103232.91;;;4.78;67.18
71764;BME280;59602;52.142;5.408;2023-04-03T00:40:49;103230.47;;;4.76;67.33
71764;BME280;59602;52.142;5.408;2023-04-03T00:43:20;103236.13;;;4.75;66.64
71764;BME280;59602;52.142;5.408;2023-04-03T00:45:49;103238.31;;;4.73;67.52
71764;BME280;59602;52.142;5.408;2023-04-03T00:48:39;103238.31;;;4.73;67.34
71764;BME280;59602;52.142;5.408;2023-04-03T00:51:11;103242.38;;;4.70;67.79
71764;BME280;59602;52.142;5.408;2023-04-03T00:53:44;103244.53;;;4.68;67.87
71764;BME280;59602;52.142;5.408;2023-04-03T00:56:14;103247.53;;;4.67;67.73
71764;BME280;59602;52.142;5.408;2023-04-03T00:58:54;103244.00;;;4.66;67.92
71764;BME280;59602;52.142;5.408;2023-04-03T01:01:33;103243.22;;;4.66;68.05
71764;BME280;59602;52.142;5.408;2023-04-03T01:04:01;103245.69;;;4.62;68.31
71764;BME280;59602;52.142;5.408;2023-04-03T01:06:33;103247.53;;;4.62;68.03
71764;BME280;59602;52.142;5.408;2023-04-03T01:09:04;103247.00;;;4.60;68.14
71764;BME280;59602;52.142;5.408;2023-04-03T01:11:31;103246.50;;;4.57;68.02
71764;BME280;59602;52.142;5.408;2023-04-03T01:13:58;103246.50;;;4.57;68.55
71764;BME280;59602;52.142;5.408;2023-04-03T01:16:27;103248.38;;;4.57;68.54
71764;BME280;59602;52.142;5.408;2023-04-03T01:18:59;103246.00;;;4.55;67.95
71764;BME280;59602;52.142;5.408;2023-04-03T01:24:34;103254.88;;;4.51;68.77
71764;BME280;59602;52.142;5.408;2023-04-03T01:27:05;103250.31;;;4.46;68.76
71764;BME280;59602;52.142;5.408;2023-04-03T01:29:32;103246.81;;;4.46;69.35
71764;BME280;59602;52.142;5.408;2023-04-03T01:32:00;103248.44;;;4.47;69.41
71764;BME280;59602;52.142;5.408;2023-04-03T01:34:28;103244.41;;;4.44;69.67
71764;BME280;59602;52.142;5.408;2023-04-03T01:36:55;103251.69;;;4.44;69.88
71764;BME280;59602;52.142;5.408;2023-04-03T01:39:22;103247.41;;;4.43;69.98
71764;BME280;59602;52.142;5.408;2023-04-03T01:41:49;103245.25;;;4.40;70.26
71764;BME280;59602;52.142;5.408;2023-04-03T01:44:16;103244.19;;;4.35;70.90
71764;BME280;59602;52.142;5.408;2023-04-03T01:46:43;103251.22;;;4.31;70.38
71764;BME280;59602;52.142;5.408;2023-04-03T01:49:10;103247.72;;;4.31;70.66
71764;BME280;59602;52.142;5.408;2023-04-03T01:51:36;103242.34;;;4.26;71.45
71764;BME280;59602;52.142;5.408;2023-04-03T01:54:03;103245.59;;;4.23;71.46
71764;BME280;59602;52.142;5.408;2023-04-03T01:56:32;103243.97;;;4.22;71.57
71764;BME280;59602;52.142;5.408;2023-04-03T01:58:59;103248.81;;;4.20;71.40
71764;BME280;59602;52.142;5.408;2023-04-03T02:01:25;103250.47;;;4.15;71.07
71764;BME280;59602;52.142;5.408;2023-04-03T02:03:53;103252.66;;;4.13;72.07
71764;BME280;59602;52.142;5.408;2023-04-03T02:06:19;103254.00;;;4.11;72.02
71764;BME280;59602;52.142;5.408;2023-04-03T02:08:46;103256.16;;;4.09;71.88
71764;BME280;59602;52.142;5.408;2023-04-03T02:11:13;103256.44;;;4.07;71.71
71764;BME280;59602;52.142;5.408;2023-04-03T02:13:40;103258.59;;;4.05;72.26
71764;BME280;59602;52.142;5.408;2023-04-03T02:16:09;103259.69;;;3.99;72.44
71764;BME280;59602;52.142;5.408;2023-04-03T02:18:37;103269.66;;;3.99;72.34
71764;BME280;59602;52.142;5.408;2023-04-03T02:21:05;103253.53;;;3.93;72.79
71764;BME280;59602;52.142;5.408;2023-04-03T02:23:33;103259.97;;;3.92;72.51
71764;BME280;59602;52.142;5.408;2023-04-03T02:26:11;103254.31;;;3.94;72.41
71764;BME280;59602;52.142;5.408;2023-04-03T02:28:40;103262.13;;;3.95;72.64
71764;BME280;59602;52.142;5.408;2023-04-03T02:31:08;103260.25;;;3.96;72.94
71764;BME280;59602;52.142;5.408;2023-04-03T02:33:50;103262.94;;;3.96;72.46
71764;BME280;59602;52.142;5.408;2023-04-03T02:36:21;103260.50;;;4.00;73.34
71764;BME280;59602;52.142;5.408;2023-04-03T02:38:50;103261.56;;;3.99;73.27
71764;BME280;59602;52.142;5.408;2023-04-03T02:41:17;103260.78;;;3.98;73.11
71764;BME280;59602;52.142;5.408;2023-04-03T02:43:46;103262.66;;;3.98;73.24
71764;BME280;59602;52.142;5.408;2023-04-03T02:46:12;103269.91;;;3.97;73.11
71764;BME280;59602;52.142;5.408;2023-04-03T02:48:42;103263.19;;;3.94;73.16
71764;BME280;59602;52.142;5.408;2023-04-03T02:51:08;103274.50;;;3.91;73.68
71764;BME280;59602;52.142;5.408;2023-04-03T02:53:35;103273.97;;;3.89;73.71
71764;BME280;59602;52.142;5.408;2023-04-03T02:56:02;103279.91;;;3.86;74.45
71764;BME280;59602;52.142;5.408;2023-04-03T02:58:28;103289.31;;;3.84;74.64
71764;BME280;59602;52.142;5.408;2023-04-03T03:00:56;103284.22;;;3.77;74.43
71764;BME280;59602;52.142;5.408;2023-04-03T03:03:23;103290.72;;;3.71;74.74
71764;BME280;59602;52.142;5.408;2023-04-03T03:05:50;103299.59;;;3.66;75.10
71764;BME280;59602;52.142;5.408;2023-04-03T03:08:16;103297.97;;;3.60;74.84
71764;BME280;59602;52.142;5.408;2023-04-03T03:11:07;103298.00;;;3.55;75.08
71764;BME280;59602;52.142;5.408;2023-04-03T03:13:34;103300.94;;;3.53;75.22
71764;BME280;59602;52.142;5.408;2023-04-03T03:16:02;103295.84;;;3.47;75.58
71764;BME280;59602;52.142;5.408;2023-04-03T03:18:29;103303.38;;;3.45;75.69
71764;BME280;59602;52.142;5.408;2023-04-03T03:20:58;103301.72;;;3.44;76.27
71764;BME280;59602;52.142;5.408;2023-04-03T03:23:26;103300.69;;;3.40;75.88
71764;BME280;59602;52.142;5.408;2023-04-03T03:25:58;103306.03;;;3.35;75.72
71764;BME280;59602;52.142;5.408;2023-04-03T03:28:34;103301.22;;;3.31;76.18
71764;BME280;59602;52.142;5.408;2023-04-03T03:31:04;103302.81;;;3.32;76.14
71764;BME280;59602;52.142;5.408;2023-04-03T03:33:31;103303.91;;;3.31;76.56
71764;BME280;59602;52.142;5.408;2023-04-03T03:36:00;103303.91;;;3.31;76.51
71764;BME280;59602;52.142;5.408;2023-04-03T03:38:26;103307.41;;;3.27;76.19
71764;BME280;59602;52.142;5.408;2023-04-03T03:40:53;103304.72;;;3.22;76.61
71764;BME280;59602;52.142;5.408;2023-04-03T03:43:20;103314.63;;;3.21;76.85
71764;BME280;59602;52.142;5.408;2023-04-03T03:45:52;103304.72;;;3.22;76.65
71764;BME280;59602;52.142;5.408;2023-04-03T03:48:20;103300.94;;;3.23;76.95
71764;BME280;59602;52.142;5.408;2023-04-03T03:50:49;103302.28;;;3.20;77.09
71764;BME280;59602;52.142;5.408;2023-04-03T03:53:18;103309.25;;;3.16;77.29
71764;BME280;59602;52.142;5.408;2023-04-03T03:55:45;103311.94;;;3.16;77.06
71764;BME280;59602;52.142;5.408;2023-04-03T03:58:12;103314.09;;;3.14;77.70
71764;BME280;59602;52.142;5.408;2023-04-03T04:00:38;103313.84;;;3.10;77.35
71764;BME280;59602;52.142;5.408;2023-04-03T04:03:05;103316.00;;;3.08;77.85
71764;BME280;59602;52.142;5.408;2023-04-03T04:05:32;103318.13;;;3.11;78.06
71764;BME280;59602;52.142;5.408;2023-04-03T04:07:59;103311.66;;;3.12;78.10
71764;BME280;59602;52.142;5.408;2023-04-03T04:10:27;103309.53;;;3.09;78.03
71764;BME280;59602;52.142;5.408;2023-04-03T04:12:53;103313.84;;;3.10;78.26
71764;BME280;59602;52.142;5.408;2023-04-03T04:15:22;103313.28;;;3.14;78.18
71764;BME280;59602;52.142;5.408;2023-04-03T04:17:49;103321.63;;;3.12;77.91
71764;BME280;59602;52.142;5.408;2023-04-03T04:20:16;103327.78;;;3.12;78.25
71764;BME280;59602;52.142;5.408;2023-04-03T04:22:42;103320.56;;;3.13;77.92
71764;BME280;59602;52.142;5.408;2023-04-03T04:25:09;103325.94;;;3.13;78.04
71764;BME280;59602;52.142;5.408;2023-04-03T04:27:39;103322.16;;;3.14;78.09
71764;BME280;59602;52.142;5.408;2023-04-03T04:30:09;103324.84;;;3.14;78.28
71764;BME280;59602;52.142;5.408;2023-04-03T04:32:37;103324.03;;;3.14;78.09
71764;BME280;59602;52.142;5.408;2023-04-03T04:35:04;103328.09;;;3.11;78.24
71764;BME280;59602;52.142;5.408;2023-04-03T04:37:31;103328.09;;;3.11;78.14
71764;BME280;59602;52.142;5.408;2023-04-03T04:39:58;103329.97;;;3.10;78.36
71764;BME280;59602;52.142;5.408;2023-04-03T04:42:25;103331.81;;;3.10;78.55
71764;BME280;59602;52.142;5.408;2023-04-03T04:44:54;103333.16;;;3.07;78.52
71764;BME280;59602;52.142;5.408;2023-04-03T04:47:23;103342.03;;;3.03;78.16
71764;BME280;59602;52.142;5.408;2023-04-03T04:49:49;103335.84;;;3.02;78.39
71764;BME280;59602;52.142;5.408;2023-04-03T04:52:25;103340.69;;;3.00;78.53
71764;BME280;59602;52.142;5.408;2023-04-03T04:54:55;103344.72;;;2.98;78.40
71764;BME280;59602;52.142;5.408;2023-04-03T04:57:21;103339.59;;;2.96;78.43
71764;BME280;59602;52.142;5.408;2023-04-03T04:59:48;103339.06;;;2.94;78.91
71764;BME280;59602;52.142;5.408;2023-04-03T05:02:14;103338.50;;;2.92;79.11
71764;BME280;59602;52.142;5.408;2023-04-03T05:04:41;103334.22;;;2.91;79.25
71764;BME280;59602;52.142;5.408;2023-04-03T05:07:08;103335.28;;;2.90;79.41
71764;BME280;59602;52.142;5.408;2023-04-03T05:09:35;103346.84;;;2.90;79.21
71764;BME280;59602;52.142;5.408;2023-04-03T05:12:04;103347.09;;;2.89;79.04
71764;BME280;59602;52.142;5.408;2023-04-03T05:14:31;103341.19;;;2.87;79.33
71764;BME280;59602;52.142;5.408;2023-04-03T05:17:18;103347.91;;;2.84;79.09
71764;BME280;59602;52.142;5.408;2023-04-03T05:19:44;103345.47;;;2.83;79.42
71764;BME280;59602;52.142;5.408;2023-04-03T05:22:12;103355.66;;;2.81;79.41
71764;BME280;59602;52.142;5.408;2023-04-03T05:24:39;103357.56;;;2.80;79.79
71764;BME280;59602;52.142;5.408;2023-04-03T05:27:06;103362.69;;;2.82;79.42
71764;BME280;59602;52.142;5.408;2023-04-03T05:29:33;103366.69;;;2.79;79.37
71764;BME280;59602;52.142;5.408;2023-04-03T05:32:02;103360.00;;;2.82;79.58
71764;BME280;59602;52.142;5.408;2023-04-03T05:34:29;103357.31;;;2.87;79.42
71764;BME280;59602;52.142;5.408;2023-04-03T05:36:56;103354.63;;;2.92;79.29
71764;BME280;59602;52.142;5.408;2023-04-03T05:39:36;103354.38;;;2.99;78.72
71764;BME280;59602;52.142;5.408;2023-04-03T05:42:04;103362.72;;;3.02;78.82
71764;BME280;59602;52.142;5.408;2023-04-03T05:44:31;103366.50;;;3.06;78.72
71764;BME280;59602;52.142;5.408;2023-04-03T05:46:58;103362.22;;;3.10;78.26
71764;BME280;59602;52.142;5.408;2023-04-03T05:49:25;103365.16;;;3.14;78.18
71764;BME280;59602;52.142;5.408;2023-04-03T05:51:51;103370.28;;;3.16;78.18
71764;BME280;59602;52.142;5.408;2023-04-03T05:54:21;103368.94;;;3.18;77.73
71764;BME280;59602;52.142;5.408;2023-04-03T05:56:50;103376.22;;;3.23;77.39
71764;BME280;59602;52.142;5.408;2023-04-03T05:59:18;103381.03;;;3.26;77.52
71764;BME280;59602;52.142;5.408;2023-04-03T06:01:45;103385.66;;;3.30;77.08
71764;BME280;59602;52.142;5.408;2023-04-03T06:04:14;103392.63;;;3.31;76.93
71764;BME280;59602;52.142;5.408;2023-04-03T06:06:43;103389.41;;;3.35;77.36
71764;BME280;59602;52.142;5.408;2023-04-03T06:09:11;103381.91;;;3.42;76.99
71764;BME280;59602;52.142;5.408;2023-04-03T06:11:38;103385.38;;;3.47;76.97
71764;BME280;59602;52.142;5.408;2023-04-03T06:14:05;103390.22;;;3.50;76.84
71764;BME280;59602;52.142;5.408;2023-04-03T06:16:32;103386.75;;;3.55;76.34
71764;BME280;59602;52.142;5.408;2023-04-03T06:18:58;103395.38;;;3.62;75.94
71764;BME280;59602;52.142;5.408;2023-04-03T06:21:25;103389.44;;;3.65;76.49
71764;BME280;59602;52.142;5.408;2023-04-03T06:23:52;103396.44;;;3.66;75.36
71764;BME280;59602;52.142;5.408;2023-04-03T06:26:19;103391.88;;;3.67;76.01
71764;BME280;59602;52.142;5.408;2023-04-03T06:28:47;103400.22;;;3.76;75.31
71764;BME280;59602;52.142;5.408;2023-04-03T06:31:13;103394.00;;;3.75;75.40
71764;BME280;59602;52.142;5.408;2023-04-03T06:33:40;103392.38;;;3.79;75.19
71764;BME280;59602;52.142;5.408;2023-04-03T06:36:07;103398.84;;;3.83;75.21
71764;BME280;59602;52.142;5.408;2023-04-03T06:38:34;103401.81;;;3.92;75.20
71764;BME280;59602;52.142;5.408;2023-04-03T06:41:00;103405.56;;;4.01;75.13
71764;BME280;59602;52.142;5.408;2023-04-03T06:43:27;103404.50;;;4.02;74.31
71764;BME280;59602;52.142;5.408;2023-04-03T06:45:54;103413.91;;;4.15;74.30
71764;BME280;59602;52.142;5.408;2023-04-03T06:48:20;103412.00;;;4.26;74.05
71764;BME280;59602;52.142;5.408;2023-04-03T06:50:47;103417.09;;;4.37;73.68
71764;BME280;59602;52.142;5.408;2023-04-03T06:53:35;103420.03;;;4.51;72.78
71764;BME280;59602;52.142;5.408;2023-04-03T06:56:10;103422.16;;;4.60;72.57
71764;BME280;59602;52.142;5.408;2023-04-03T06:58:49;103423.75;;;4.66;72.40
71764;BME280;59602;52.142;5.408;2023-04-03T07:01:18;103424.25;;;4.73;72.24
71764;BME280;59602;52.142;5.408;2023-04-03T07:03:47;103429.34;;;4.85;72.01
71764;BME280;59602;52.142;5.408;2023-04-03T07:06:15;103430.09;;;5.01;72.16
71764;BME280;59602;52.142;5.408;2023-04-03T07:08:44;103431.34;;;5.13;71.48
71764;BME280;59602;52.142;5.408;2023-04-03T07:11:12;103437.81;;;5.23;71.24
71764;BME280;59602;52.142;5.408;2023-04-03T07:13:38;103435.34;;;5.26;70.67
71764;BME280;59602;52.142;5.408;2023-04-03T07:16:05;103436.66;;;5.29;70.15
71764;BME280;59602;52.142;5.408;2023-04-03T07:18:35;103435.03;;;5.33;70.40
71764;BME280;59602;52.142;5.408;2023-04-03T07:21:03;103446.31;;;5.40;69.74
71764;BME280;59602;52.142;5.408;2023-04-03T07:23:30;103451.66;;;5.50;69.11
71764;BME280;59602;52.142;5.408;2023-04-03T07:26:02;103454.56;;;5.59;69.07
71764;BME280;59602;52.142;5.408;2023-04-03T07:28:29;103449.66;;;5.66;68.59
71764;BME280;59602;52.142;5.408;2023-04-03T07:31:01;103447.69;;;5.77;68.47
71764;BME280;59602;52.142;5.408;2023-04-03T07:33:30;103450.81;;;5.89;68.11
71764;BME280;59602;52.142;5.408;2023-04-03T07:35:57;103452.38;;;6.00;69.00
71764;BME280;59602;52.142;5.408;2023-04-03T07:38:27;103455.34;;;6.04;67.62
71764;BME280;59602;52.142;5.408;2023-04-03T07:40:53;103460.47;;;6.06;66.52
71764;BME280;59602;52.142;5.408;2023-04-03T07:43:35;103459.84;;;6.14;66.01
71764;BME280;59602;52.142;5.408;2023-04-03T07:48:50;103463.44;;;6.33;66.39
71764;BME280;59602;52.142;5.408;2023-04-03T07:51:17;103468.84;;;6.33;65.80
71764;BME280;59602;52.142;5.408;2023-04-03T07:53:52;103462.31;;;6.39;64.74
71764;BME280;59602;52.142;5.408;2023-04-03T07:56:19;103466.28;;;6.47;64.90
71764;BME280;59602;52.142;5.408;2023-04-03T07:58:47;103468.88;;;6.57;64.51
71764;BME280;59602;52.142;5.408;2023-04-03T08:01:13;103466.13;;;6.62;64.16
71764;BME280;59602;52.142;5.408;2023-04-03T08:03:40;103463.94;;;6.64;64.30
71764;BME280;59602;52.142;5.408;2023-04-03T08:06:08;103465.84;;;6.64;62.93
71764;BME280;59602;52.142;5.408;2023-04-03T08:08:41;103459.63;;;6.63;63.08
71764;BME280;59602;52.142;5.408;2023-04-03T08:11:11;103464.78;;;6.60;62.52
71764;BME280;59602;52.142;5.408;2023-04-03T08:13:38;103470.19;;;6.60;62.28
71764;BME280;59602;52.142;5.408;2023-04-03T08:16:15;103471.31;;;6.59;61.28
71764;BME280;59602;52.142;5.408;2023-04-03T08:18:42;103479.09;;;6.65;61.66
71764;BME280;59602;52.142;5.408;2023-04-03T08:21:11;103480.34;;;6.73;61.22
71764;BME280;59602;52.142;5.408;2023-04-03T08:23:39;103477.38;;;6.70;60.88
71764;BME280;59602;52.142;5.408;2023-04-03T08:26:12;103477.19;;;6.66;60.40
71764;BME280;59602;52.142;5.408;2023-04-03T08:28:41;103478.84;;;6.62;60.43
71764;BME280;59602;52.142;5.408;2023-04-03T08:31:14;103488.84;;;6.61;60.19
71764;BME280;59602;52.142;5.408;2023-04-03T08:33:41;103492.28;;;6.67;59.85
71764;BME280;59602;52.142;5.408;2023-04-03T08:36:22;103493.84;;;6.73;59.07
71764;BME280;59602;52.142;5.408;2023-04-03T08:38:51;103494.38;;;6.75;59.43
71764;BME280;59602;52.142;5.408;2023-04-03T08:49:42;103500.13;;;6.93;57.62
71764;BME280;59602;52.142;5.408;2023-04-03T08:52:18;103484.78;;;6.88;56.28
71764;BME280;59602;52.142;5.408;2023-04-03T08:54:52;103497.72;;;6.91;55.56
71764;BME280;59602;52.142;5.408;2023-04-03T08:59:59;103494.66;;;6.98;53.88
71764;BME280;59602;52.142;5.408;2023-04-03T09:02:35;103487.81;;;7.05;54.83
71764;BME280;59602;52.142;5.408;2023-04-03T09:05:13;103484.59;;;7.03;54.20
71764;BME280;59602;52.142;5.408;2023-04-03T09:07:46;103478.72;;;6.96;51.46
71764;BME280;59602;52.142;5.408;2023-04-03T09:10:24;103487.00;;;7.05;51.31
71764;BME280;59602;52.142;5.408;2023-04-03T09:13:05;103485.03;;;7.11;49.03
71764;BME280;59602;52.142;5.408;2023-04-03T09:15:33;103494.19;;;7.15;49.53
71764;BME280;59602;52.142;5.408;2023-04-03T09:23:22;103487.59;;;7.21;47.37
71764;BME280;59602;52.142;5.408;2023-04-03T09:25:58;103490.31;;;7.21;45.95
71764;BME280;59602;52.142;5.408;2023-04-03T09:28:29;103485.41;;;7.23;46.91
71764;BME280;59602;52.142;5.408;2023-04-03T09:31:25;103485.00;;;7.35;46.81
71764;BME280;59602;52.142;5.408;2023-04-03T09:33:56;103473.50;;;7.43;46.46
71764;BME280;59602;52.142;5.408;2023-04-03T09:39:14;103478.88;;;7.48;45.22
71764;BME280;59602;52.142;5.408;2023-04-03T09:41:42;103474.09;;;7.59;45.20
71764;BME280;59602;52.142;5.408;2023-04-03T09:44:30;103464.78;;;7.65;44.79
71764;BME280;59602;52.142;5.408;2023-04-03T09:46:58;103475.34;;;7.66;45.58
71764;BME280;59602;52.142;5.408;2023-04-03T09:49:24;103467.31;;;7.61;45.78
71764;BME280;59602;52.142;5.408;2023-04-03T09:51:51;103469.69;;;7.63;44.90
71764;BME280;59602;52.142;5.408;2023-04-03T09:54:34;103468.81;;;7.67;44.11
71764;BME280;59602;52.142;5.408;2023-04-03T09:57:08;103459.00;;;7.72;44.11
71764;BME280;59602;52.142;5.408;2023-04-03T09:59:36;103462.47;;;7.77;42.09
71764;BME280;59602;52.142;5.408;2023-04-03T10:04:47;103453.34;;;7.87;42.42
71764;BME280;59602;52.142;5.408;2023-04-03T10:07:35;103439.53;;;7.88;44.88
71764;BME280;59602;52.142;5.408;2023-04-03T10:12:43;103443.94;;;7.98;41.93
71764;BME280;59602;52.142;5.408;2023-04-03T10:15:13;103440.16;;;7.99;42.26
71764;BME280;59602;52.142;5.408;2023-04-03T10:17:50;103444.06;;;8.07;41.89
71764;BME280;59602;52.142;5.408;2023-04-03T10:20:30;103434.97;;;8.17;41.69
71764;BME280;59602;52.142;5.408;2023-04-03T10:23:17;103431.34;;;8.21;44.09
71764;BME280;59602;52.142;5.408;2023-04-03T10:28:35;103433.59;;;8.33;41.33
71764;BME280;59602;52.142;5.408;2023-04-03T10:33:46;103410.13;;;8.42;40.15
71764;BME280;59602;52.142;5.408;2023-04-03T10:44:27;103398.06;;;8.76;42.41
71764;BME280;59602;52.142;5.408;2023-04-03T10:47:09;103389.50;;;8.83;41.82
71764;BME280;59602;52.142;5.408;2023-04-03T10:50:00;103398.53;;;8.92;39.34
71764;BME280;59602;52.142;5.408;2023-04-03T10:52:46;103399.13;;;9.03;39.75
71764;BME280;59602;52.142;5.408;2023-04-03T10:55:34;103395.69;;;9.11;38.96
71764;BME280;59602;52.142;5.408;2023-04-03T10:58:26;103394.34;;;9.22;39.30
71764;BME280;59602;52.142;5.408;2023-04-03T11:01:22;103388.38;;;9.34;40.54
71764;BME280;59602;52.142;5.408;2023-04-03T11:03:58;103384.22;;;9.37;40.11
71764;BME280;59602;52.142;5.408;2023-04-03T11:06:31;103385.72;;;9.43;40.59
71764;BME280;59602;52.142;5.408;2023-04-03T11:09:52;103389.97;;;9.57;39.67
71764;BME280;59602;52.142;5.408;2023-04-03T11:12:25;103389.84;;;9.63;38.12
71764;BME280;59602;52.142;5.408;2023-04-03T11:14:57;103373.56;;;9.63;36.99
71764;BME280;59602;52.142;5.408;2023-04-03T11:17:38;103379.34;;;9.70;39.32
71764;BME280;59602;52.142;5.408;2023-04-03T11:20:23;103377.00;;;9.77;38.72
71764;BME280;59602;52.142;5.408;2023-04-03T11:23:00;103377.84;;;9.86;39.79
71764;BME280;59602;52.142;5.408;2023-04-03T11:25:32;103376.41;;;9.89;39.37
71764;BME280;59602;52.142;5.408;2023-04-03T11:28:04;103374.88;;;9.96;38.84
71764;BME280;59602;52.142;5.408;2023-04-03T11:36:28;103386.16;;;10.21;39.47
71764;BME280;59602;52.142;5.408;2023-04-03T11:39:31;103370.84;;;10.25;38.55
71764;BME280;59602;52.142;5.408;2023-04-03T11:42:31;103375.34;;;10.30;39.37
71764;BME280;59602;52.142;5.408;2023-04-03T11:45:52;103376.34;;;10.34;38.40
71764;BME280;59602;52.142;5.408;2023-04-03T11:48:53;103370.66;;;10.22;37.59
71764;BME280;59602;52.142;5.408;2023-04-03T11:51:40;103367.94;;;10.22;37.95
71764;BME280;59602;52.142;5.408;2023-04-03T11:54:44;103372.09;;;10.19;37.02
71764;BME280;59602;52.142;5.408;2023-04-03T11:57:44;103362.97;;;10.24;37.65
71764;BME280;59602;52.142;5.408;2023-04-03T12:11:33;103352.47;;;10.31;36.92
71764;BME280;59602;52.142;5.408;2023-04-03T12:14:23;103344.00;;;10.32;36.89
71764;BME280;59602;52.142;5.408;2023-04-03T12:17:22;103343.06;;;10.37;38.35
71764;BME280;59602;52.142;5.408;2023-04-03T12:19:55;103338.28;;;10.43;37.25
71764;BME280;59602;52.142;5.408;2023-04-03T12:26:00;103329.97;;;10.48;36.68
71764;BME280;59602;52.142;5.408;2023-04-03T12:32:43;103308.53;;;10.55;36.91
71764;BME280;59602;52.142;5.408;2023-04-03T12:38:51;103310.63;;;10.67;37.47
71764;BME280;59602;52.142;5.408;2023-04-03T12:42:11;103307.41;;;10.65;36.67
71764;BME280;59602;52.142;5.408;2023-04-03T12:48:14;103299.91;;;10.62;38.81
71764;BME280;59602;52.142;5.408;2023-04-03T12:50:45;103290.78;;;10.57;37.71
71764;BME280;59602;52.142;5.408;2023-04-03T12:57:11;103289.19;;;10.65;39.73
71764;BME280;59602;52.142;5.408;2023-04-03T13:04:38;103282.78;;;10.70;38.24
71764;BME280;59602;52.142;5.408;2023-04-03T13:07:22;103276.38;;;10.74;37.23
71764;BME280;59602;52.142;5.408;2023-04-03T13:09:58;103286.31;;;10.79;40.78
71764;BME280;59602;52.142;5.408;2023-04-03T13:12:27;103279.41;;;10.73;39.68
71764;BME280;59602;52.142;5.408;2023-04-03T13:15:32;103267.25;;;10.70;39.38
71764;BME280;59602;52.142;5.408;2023-04-03T13:18:39;103269.19;;;10.70;38.54
71764;BME280;59602;52.142;5.408;2023-04-03T13:22:27;103255.41;;;10.75;38.18
71764;BME280;59602;52.142;5.408;2023-04-03T13:25:40;103270.47;;;10.72;39.01
71764;BME280;59602;52.142;5.408;2023-04-03T13:28:50;103252.69;;;10.75;38.61
71764;BME280;59602;52.142;5.408;2023-04-03T13:31:58;103258.94;;;10.75;37.91
71764;BME280;59602;52.142;5.408;2023-04-03T13:35:30;103262.63;;;10.79;38.71
71764;BME280;59602;52.142;5.408;2023-04-03T13:41:39;103257.66;;;10.90;37.17
71764;BME280;59602;52.142;5.408;2023-04-03T13:44:31;103260.69;;;10.97;38.39
71764;BME280;59602;52.142;5.408;2023-04-03T13:47:14;103264.03;;;11.03;37.17
71764;BME280;59602;52.142;5.408;2023-04-03T13:50:04;103249.78;;;11.06;37.14
71764;BME280;59602;52.142;5.408;2023-04-03T13:56:45;103259.41;;;11.04;37.57
71764;BME280;59602;52.142;5.408;2023-04-03T13:59:56;103264.06;;;10.94;37.13
71764;BME280;59602;52.142;5.408;2023-04-03T14:03:38;103252.81;;;10.96;38.44
71764;BME280;59602;52.142;5.408;2023-04-03T14:07:28;103247.53;;;10.99;38.09
71764;BME280;59602;52.142;5.408;2023-04-03T14:10:13;103248.50;;;10.95;36.94
71764;BME280;59602;52.142;5.408;2023-04-03T14:13:06;103240.81;;;10.97;38.11
71764;BME280;59602;52.142;5.408;2023-04-03T15:03:01;103191.72;;;11.32;40.09
71764;BME280;59602;52.142;5.408;2023-04-03T16:16:32;103193.81;;;10.44;41.91
71764;BME280;59602;52.142;5.408;2023-04-03T16:19:00;103198.44;;;10.44;43.01
71764;BME280;59602;52.142;5.408;2023-04-03T16:21:27;103199.56;;;10.51;49.92
71764;BME280;59602;52.142;5.408;2023-04-03T16:23:58;103200.22;;;10.57;46.92
71764;BME280;59602;52.142;5.408;2023-04-03T16:26:25;103207.88;;;10.55;45.44
71764;BME280;59602;52.142;5.408;2023-04-03T16:28:52;103201.81;;;10.49;48.94
71764;BME280;59602;52.142;5.408;2023-04-03T16:31:19;103198.13;;;10.45;47.70
71764;BME280;59602;52.142;5.408;2023-04-03T16:33:47;103209.97;;;10.41;49.03
71764;BME280;59602;52.142;5.408;2023-04-03T16:36:13;103203.41;;;10.42;44.42
71764;BME280;59602;52.142;5.408;2023-04-03T16:38:41;103197.59;;;10.26;43.71
71764;BME280;59602;52.142;5.408;2023-04-03T16:41:08;103202.72;;;10.18;45.67
71764;BME280;59602;52.142;5.408;2023-04-03T16:43:34;103204.78;;;10.22;47.04
71764;BME280;59602;52.142;5.408;2023-04-03T16:46:03;103207.19;;;10.23;51.28
71764;BME280;59602;52.142;5.408;2023-04-03T16:48:30;103214.22;;;10.15;48.16
71764;BME280;59602;52.142;5.408;2023-04-03T16:50:57;103205.13;;;10.11;45.83
71764;BME280;59602;52.142;5.408;2023-04-03T16:53:24;103203.00;;;10.08;46.35
71764;BME280;59602;52.142;5.408;2023-04-03T16:55:52;103207.97;;;10.06;45.35
71764;BME280;59602;52.142;5.408;2023-04-03T19:37:29;103232.63;;;6.39;57.86
71764;BME280;59602;52.142;5.408;2023-04-03T21:23:08;103230.13;;;4.88;63.78